sensor_id;sensor_type;location;lat;lon;timestamp;P1;durP1;ratioP1;P2;durP2;ratioP2
45206;SDS011;30950;53.086;21.576;2022-08-18T00:01:17;20.60;;;17.20;;
45206;SDS011;30950;53.086;21.576;2022-08-18T00:03:45;20.00;;;14.60;;
45206;SDS011;30950;53.086;21.576;2022-08-18T00:06:28;16.35;;;13.50;;
45206;SDS011;30950;53.086;21.576;2022-08-18T00:08:59;20.65;;;14.60;;
45206;SDS011;30950;53.086;21.576;2022-08-18T00:11:29;14.95;;;12.95;;
45206;SDS011;30950;53.086;21.576;2022-08-18T00:14:14;17.30;;;14.98;;
45206;SDS011;30950;53.086;21.576;2022-08-18T00:16:51;19.48;;;13.98;;
45206;SDS011;30950;53.086;21.576;2022-08-18T00:19:20;18.30;;;15.38;;
45206;SDS011;30950;53.086;21.576;2022-08-18T00:22:09;15.60;;;13.13;;
45206;SDS011;30950;53.086;21.576;2022-08-18T00:24:41;18.05;;;14.35;;
45206;SDS011;30950;53.086;21.576;2022-08-18T00:27:17;26.63;;;16.45;;
45206;SDS011;30950;53.086;21.576;2022-08-18T00:29:49;19.27;;;13.95;;
45206;SDS011;30950;53.086;21.576;2022-08-18T00:32:25;18.25;;;16.10;;
45206;SDS011;30950;53.086;21.576;2022-08-18T00:35:06;17.02;;;14.50;;
45206;SDS011;30950;53.086;21.576;2022-08-18T00:37:40;19.70;;;15.30;;
45206;SDS011;30950;53.086;21.576;2022-08-18T00:40:08;20.08;;;15.70;;
45206;SDS011;30950;53.086;21.576;2022-08-18T00:42:41;16.17;;;13.57;;
45206;SDS011;30950;53.086;21.576;2022-08-18T00:45:18;16.92;;;14.27;;
45206;SDS011;30950;53.086;21.576;2022-08-18T00:50:16;17.17;;;15.13;;
45206;SDS011;30950;53.086;21.576;2022-08-18T00:52:53;18.17;;;14.77;;
45206;SDS011;30950;53.086;21.576;2022-08-18T00:55:27;17.85;;;14.80;;
45206;SDS011;30950;53.086;21.576;2022-08-18T00:58:02;20.52;;;15.98;;
45206;SDS011;30950;53.086;21.576;2022-08-18T01:00:34;18.80;;;15.18;;
45206;SDS011;30950;53.086;21.576;2022-08-18T01:03:04;17.42;;;15.63;;
45206;SDS011;30950;53.086;21.576;2022-08-18T01:05:38;17.77;;;15.95;;
45206;SDS011;30950;53.086;21.576;2022-08-18T01:08:11;17.25;;;13.73;;
45206;SDS011;30950;53.086;21.576;2022-08-18T01:10:42;17.38;;;15.18;;
45206;SDS011;30950;53.086;21.576;2022-08-18T01:13:11;24.13;;;17.17;;
45206;SDS011;30950;53.086;21.576;2022-08-18T01:15:38;17.65;;;14.48;;
45206;SDS011;30950;53.086;21.576;2022-08-18T01:18:08;17.67;;;15.80;;
45206;SDS011;30950;53.086;21.576;2022-08-18T01:20:58;18.13;;;16.30;;
45206;SDS011;30950;53.086;21.576;2022-08-18T01:24:03;19.02;;;16.95;;
45206;SDS011;30950;53.086;21.576;2022-08-18T01:26:34;17.55;;;15.73;;
45206;SDS011;30950;53.086;21.576;2022-08-18T01:29:11;18.02;;;15.63;;
45206;SDS011;30950;53.086;21.576;2022-08-18T01:31:51;19.38;;;15.93;;
45206;SDS011;30950;53.086;21.576;2022-08-18T01:34:25;20.50;;;15.88;;
45206;SDS011;30950;53.086;21.576;2022-08-18T01:36:54;17.42;;;15.32;;
45206;SDS011;30950;53.086;21.576;2022-08-18T01:39:22;20.92;;;16.48;;
45206;SDS011;30950;53.086;21.576;2022-08-18T01:42:10;21.23;;;18.83;;
45206;SDS011;30950;53.086;21.576;2022-08-18T01:44:39;20.55;;;18.33;;
45206;SDS011;30950;53.086;21.576;2022-08-18T01:47:07;22.23;;;18.98;;
45206;SDS011;30950;53.086;21.576;2022-08-18T01:49:37;19.20;;;16.40;;
45206;SDS011;30950;53.086;21.576;2022-08-18T01:52:09;20.80;;;18.60;;
45206;SDS011;30950;53.086;21.576;2022-08-18T01:54:41;19.27;;;16.65;;
45206;SDS011;30950;53.086;21.576;2022-08-18T01:57:09;20.33;;;18.23;;
45206;SDS011;30950;53.086;21.576;2022-08-18T01:59:39;22.20;;;17.95;;
45206;SDS011;30950;53.086;21.576;2022-08-18T02:02:08;19.88;;;17.33;;
45206;SDS011;30950;53.086;21.576;2022-08-18T02:04:44;18.27;;;16.38;;
45206;SDS011;30950;53.086;21.576;2022-08-18T02:07:12;19.00;;;15.65;;
45206;SDS011;30950;53.086;21.576;2022-08-18T02:09:41;20.48;;;16.50;;
45206;SDS011;30950;53.086;21.576;2022-08-18T02:12:09;22.90;;;18.10;;
45206;SDS011;30950;53.086;21.576;2022-08-18T02:14:37;19.70;;;16.70;;
45206;SDS011;30950;53.086;21.576;2022-08-18T02:17:05;20.17;;;18.05;;
45206;SDS011;30950;53.086;21.576;2022-08-18T02:19:38;19.05;;;15.73;;
45206;SDS011;30950;53.086;21.576;2022-08-18T02:22:09;19.45;;;16.98;;
45206;SDS011;30950;53.086;21.576;2022-08-18T02:24:43;23.83;;;17.70;;
45206;SDS011;30950;53.086;21.576;2022-08-18T02:27:11;20.73;;;16.70;;
45206;SDS011;30950;53.086;21.576;2022-08-18T02:29:39;22.95;;;18.10;;
45206;SDS011;30950;53.086;21.576;2022-08-18T02:32:07;20.27;;;15.07;;
45206;SDS011;30950;53.086;21.576;2022-08-18T02:34:35;22.45;;;17.67;;
45206;SDS011;30950;53.086;21.576;2022-08-18T02:37:02;20.23;;;16.98;;
45206;SDS011;30950;53.086;21.576;2022-08-18T02:39:32;24.13;;;16.20;;
45206;SDS011;30950;53.086;21.576;2022-08-18T02:42:01;18.17;;;16.20;;
45206;SDS011;30950;53.086;21.576;2022-08-18T02:44:28;21.15;;;17.67;;
45206;SDS011;30950;53.086;21.576;2022-08-18T02:46:57;18.08;;;16.17;;
45206;SDS011;30950;53.086;21.576;2022-08-18T02:49:24;19.92;;;17.17;;
45206;SDS011;30950;53.086;21.576;2022-08-18T02:51:52;21.08;;;17.25;;
45206;SDS011;30950;53.086;21.576;2022-08-18T02:54:20;23.48;;;20.92;;
45206;SDS011;30950;53.086;21.576;2022-08-18T02:56:51;21.60;;;18.45;;
45206;SDS011;30950;53.086;21.576;2022-08-18T02:59:20;22.23;;;18.00;;
45206;SDS011;30950;53.086;21.576;2022-08-18T03:01:54;21.85;;;18.67;;
45206;SDS011;30950;53.086;21.576;2022-08-18T03:04:23;21.90;;;19.08;;
45206;SDS011;30950;53.086;21.576;2022-08-18T03:06:58;20.90;;;18.70;;
45206;SDS011;30950;53.086;21.576;2022-08-18T03:09:28;21.20;;;16.70;;
45206;SDS011;30950;53.086;21.576;2022-08-18T03:11:56;21.35;;;18.27;;
45206;SDS011;30950;53.086;21.576;2022-08-18T03:14:24;19.77;;;17.77;;
45206;SDS011;30950;53.086;21.576;2022-08-18T03:16:51;19.98;;;17.88;;
45206;SDS011;30950;53.086;21.576;2022-08-18T03:19:27;22.08;;;18.15;;
45206;SDS011;30950;53.086;21.576;2022-08-18T03:21:56;22.38;;;19.00;;
45206;SDS011;30950;53.086;21.576;2022-08-18T03:24:29;23.88;;;20.05;;
45206;SDS011;30950;53.086;21.576;2022-08-18T03:26:58;28.15;;;20.27;;
45206;SDS011;30950;53.086;21.576;2022-08-18T03:29:27;19.65;;;16.98;;
45206;SDS011;30950;53.086;21.576;2022-08-18T03:31:59;22.55;;;18.98;;
45206;SDS011;30950;53.086;21.576;2022-08-18T03:34:28;20.23;;;18.05;;
45206;SDS011;30950;53.086;21.576;2022-08-18T03:36:55;19.15;;;17.23;;
45206;SDS011;30950;53.086;21.576;2022-08-18T03:39:23;22.75;;;19.50;;
45206;SDS011;30950;53.086;21.576;2022-08-18T03:41:52;22.85;;;20.48;;
45206;SDS011;30950;53.086;21.576;2022-08-18T03:44:30;21.45;;;19.15;;
45206;SDS011;30950;53.086;21.576;2022-08-18T03:46:59;20.10;;;17.77;;
45206;SDS011;30950;53.086;21.576;2022-08-18T03:49:29;20.48;;;16.75;;
45206;SDS011;30950;53.086;21.576;2022-08-18T03:51:58;25.15;;;17.60;;
45206;SDS011;30950;53.086;21.576;2022-08-18T03:54:27;20.73;;;18.55;;
45206;SDS011;30950;53.086;21.576;2022-08-18T03:56:55;21.35;;;19.08;;
45206;SDS011;30950;53.086;21.576;2022-08-18T03:59:40;20.48;;;16.48;;
45206;SDS011;30950;53.086;21.576;2022-08-18T04:02:09;23.52;;;21.13;;
45206;SDS011;30950;53.086;21.576;2022-08-18T04:04:37;21.20;;;19.13;;
45206;SDS011;30950;53.086;21.576;2022-08-18T04:07:10;21.63;;;17.23;;
45206;SDS011;30950;53.086;21.576;2022-08-18T04:09:39;20.90;;;17.98;;
45206;SDS011;30950;53.086;21.576;2022-08-18T04:12:09;20.25;;;18.00;;
45206;SDS011;30950;53.086;21.576;2022-08-18T04:14:43;23.42;;;18.52;;
45206;SDS011;30950;53.086;21.576;2022-08-18T04:17:15;21.67;;;18.35;;
45206;SDS011;30950;53.086;21.576;2022-08-18T04:19:51;22.92;;;19.48;;
45206;SDS011;30950;53.086;21.576;2022-08-18T04:22:19;20.80;;;16.92;;
45206;SDS011;30950;53.086;21.576;2022-08-18T04:24:47;23.08;;;20.30;;
45206;SDS011;30950;53.086;21.576;2022-08-18T04:27:16;21.42;;;18.58;;
45206;SDS011;30950;53.086;21.576;2022-08-18T04:29:45;20.42;;;18.30;;
45206;SDS011;30950;53.086;21.576;2022-08-18T04:32:12;23.52;;;20.25;;
45206;SDS011;30950;53.086;21.576;2022-08-18T04:34:40;21.08;;;18.77;;
45206;SDS011;30950;53.086;21.576;2022-08-18T04:37:07;21.67;;;17.15;;
45206;SDS011;30950;53.086;21.576;2022-08-18T04:39:35;21.52;;;18.02;;
45206;SDS011;30950;53.086;21.576;2022-08-18T04:42:03;21.20;;;18.95;;
45206;SDS011;30950;53.086;21.576;2022-08-18T04:44:31;19.58;;;17.48;;
45206;SDS011;30950;53.086;21.576;2022-08-18T04:46:59;18.92;;;16.70;;
45206;SDS011;30950;53.086;21.576;2022-08-18T04:49:27;22.60;;;18.77;;
45206;SDS011;30950;53.086;21.576;2022-08-18T04:51:57;19.67;;;17.20;;
45206;SDS011;30950;53.086;21.576;2022-08-18T04:55:03;19.85;;;17.63;;
45206;SDS011;30950;53.086;21.576;2022-08-18T04:57:31;20.95;;;17.58;;
45206;SDS011;30950;53.086;21.576;2022-08-18T05:00:00;23.80;;;18.98;;
45206;SDS011;30950;53.086;21.576;2022-08-18T05:02:30;23.77;;;17.20;;
45206;SDS011;30950;53.086;21.576;2022-08-18T05:04:58;20.50;;;15.70;;
45206;SDS011;30950;53.086;21.576;2022-08-18T05:07:28;22.30;;;17.48;;
45206;SDS011;30950;53.086;21.576;2022-08-18T05:09:56;23.48;;;16.60;;
45206;SDS011;30950;53.086;21.576;2022-08-18T05:12:23;19.38;;;15.20;;
45206;SDS011;30950;53.086;21.576;2022-08-18T05:14:52;19.98;;;15.70;;
45206;SDS011;30950;53.086;21.576;2022-08-18T05:17:23;20.85;;;15.20;;
45206;SDS011;30950;53.086;21.576;2022-08-18T05:19:56;20.35;;;15.90;;
45206;SDS011;30950;53.086;21.576;2022-08-18T05:22:28;19.35;;;16.48;;
45206;SDS011;30950;53.086;21.576;2022-08-18T05:24:57;22.52;;;16.05;;
45206;SDS011;30950;53.086;21.576;2022-08-18T05:27:43;18.40;;;16.35;;
45206;SDS011;30950;53.086;21.576;2022-08-18T05:30:10;20.92;;;16.75;;
45206;SDS011;30950;53.086;21.576;2022-08-18T05:32:41;19.67;;;17.00;;
45206;SDS011;30950;53.086;21.576;2022-08-18T05:35:19;20.25;;;16.30;;
45206;SDS011;30950;53.086;21.576;2022-08-18T05:38:16;21.17;;;13.77;;
45206;SDS011;30950;53.086;21.576;2022-08-18T05:41:06;16.67;;;13.50;;
45206;SDS011;30950;53.086;21.576;2022-08-18T05:43:40;17.52;;;13.15;;
45206;SDS011;30950;53.086;21.576;2022-08-18T05:46:18;19.27;;;13.88;;
45206;SDS011;30950;53.086;21.576;2022-08-18T05:48:51;16.85;;;12.70;;
45206;SDS011;30950;53.086;21.576;2022-08-18T05:51:27;17.92;;;13.88;;
45206;SDS011;30950;53.086;21.576;2022-08-18T05:53:58;17.05;;;11.73;;
45206;SDS011;30950;53.086;21.576;2022-08-18T05:56:47;16.02;;;13.48;;
45206;SDS011;30950;53.086;21.576;2022-08-18T05:59:21;14.57;;;11.70;;
45206;SDS011;30950;53.086;21.576;2022-08-18T06:01:54;19.77;;;12.35;;
45206;SDS011;30950;53.086;21.576;2022-08-18T06:04:43;13.35;;;11.95;;
45206;SDS011;30950;53.086;21.576;2022-08-18T06:07:18;13.43;;;11.88;;
45206;SDS011;30950;53.086;21.576;2022-08-18T06:09:59;14.75;;;12.10;;
45206;SDS011;30950;53.086;21.576;2022-08-18T06:12:30;17.23;;;13.45;;
45206;SDS011;30950;53.086;21.576;2022-08-18T06:41:03;14.50;;;10.85;;
45206;SDS011;30950;53.086;21.576;2022-08-18T06:43:58;11.75;;;9.07;;
45206;SDS011;30950;53.086;21.576;2022-08-18T06:49:11;10.57;;;8.80;;
45206;SDS011;30950;53.086;21.576;2022-08-18T06:51:47;10.30;;;8.93;;
45206;SDS011;30950;53.086;21.576;2022-08-18T06:56:48;13.45;;;9.63;;
45206;SDS011;30950;53.086;21.576;2022-08-18T07:01:55;11.15;;;8.20;;
45206;SDS011;30950;53.086;21.576;2022-08-18T07:04:42;11.50;;;9.13;;
45206;SDS011;30950;53.086;21.576;2022-08-18T07:07:43;16.90;;;9.75;;
45206;SDS011;30950;53.086;21.576;2022-08-18T07:12:41;11.00;;;7.60;;
45206;SDS011;30950;53.086;21.576;2022-08-18T07:15:08;9.85;;;8.13;;
45206;SDS011;30950;53.086;21.576;2022-08-18T07:17:38;10.35;;;7.82;;
45206;SDS011;30950;53.086;21.576;2022-08-18T07:20:22;10.23;;;7.30;;
45206;SDS011;30950;53.086;21.576;2022-08-18T07:22:59;10.05;;;7.88;;
45206;SDS011;30950;53.086;21.576;2022-08-18T07:25:38;9.20;;;8.07;;
45206;SDS011;30950;53.086;21.576;2022-08-18T07:28:25;15.63;;;9.35;;
45206;SDS011;30950;53.086;21.576;2022-08-18T07:34:16;12.30;;;9.75;;
45206;SDS011;30950;53.086;21.576;2022-08-18T07:36:46;16.75;;;8.20;;
45206;SDS011;30950;53.086;21.576;2022-08-18T07:39:39;10.73;;;9.13;;
45206;SDS011;30950;53.086;21.576;2022-08-18T07:42:16;16.77;;;9.60;;
45206;SDS011;30950;53.086;21.576;2022-08-18T07:48:16;16.55;;;10.45;;
45206;SDS011;30950;53.086;21.576;2022-08-18T07:53:40;12.35;;;9.27;;
45206;SDS011;30950;53.086;21.576;2022-08-18T07:56:26;15.73;;;9.27;;
45206;SDS011;30950;53.086;21.576;2022-08-18T08:04:18;17.15;;;9.05;;
45206;SDS011;30950;53.086;21.576;2022-08-18T08:07:02;12.80;;;9.65;;
45206;SDS011;30950;53.086;21.576;2022-08-18T08:15:23;13.57;;;9.27;;
45206;SDS011;30950;53.086;21.576;2022-08-18T08:18:11;13.30;;;8.77;;
45206;SDS011;30950;53.086;21.576;2022-08-18T08:20:53;13.68;;;9.48;;
45206;SDS011;30950;53.086;21.576;2022-08-18T08:36:38;13.00;;;7.20;;
45206;SDS011;30950;53.086;21.576;2022-08-18T08:42:07;13.52;;;8.35;;
45206;SDS011;30950;53.086;21.576;2022-08-18T08:45:02;13.95;;;8.48;;
45206;SDS011;30950;53.086;21.576;2022-08-18T08:47:37;12.02;;;8.05;;
45206;SDS011;30950;53.086;21.576;2022-08-18T08:50:16;14.55;;;7.45;;
45206;SDS011;30950;53.086;21.576;2022-08-18T08:52:58;15.80;;;7.90;;
45206;SDS011;30950;53.086;21.576;2022-08-18T08:55:46;15.02;;;7.70;;
45206;SDS011;30950;53.086;21.576;2022-08-18T08:58:59;12.50;;;7.78;;
45206;SDS011;30950;53.086;21.576;2022-08-18T09:01:25;14.13;;;8.32;;
45206;SDS011;30950;53.086;21.576;2022-08-18T09:06:56;11.02;;;8.00;;
45206;SDS011;30950;53.086;21.576;2022-08-18T09:20:33;10.15;;;6.93;;
45206;SDS011;30950;53.086;21.576;2022-08-18T09:25:58;10.20;;;6.40;;
45206;SDS011;30950;53.086;21.576;2022-08-18T09:28:53;11.23;;;6.78;;
45206;SDS011;30950;53.086;21.576;2022-08-18T09:31:23;7.18;;;6.07;;
45206;SDS011;30950;53.086;21.576;2022-08-18T09:34:00;8.85;;;6.25;;
45206;SDS011;30950;53.086;21.576;2022-08-18T09:39:38;10.48;;;5.80;;
45206;SDS011;30950;53.086;21.576;2022-08-18T09:42:50;10.63;;;7.25;;
45206;SDS011;30950;53.086;21.576;2022-08-18T09:45:54;8.70;;;6.50;;
45206;SDS011;30950;53.086;21.576;2022-08-18T09:48:28;7.63;;;5.25;;
45206;SDS011;30950;53.086;21.576;2022-08-18T09:51:14;11.57;;;6.10;;
45206;SDS011;30950;53.086;21.576;2022-08-18T09:54:13;9.18;;;6.60;;
45206;SDS011;30950;53.086;21.576;2022-08-18T10:02:12;9.35;;;6.15;;
45206;SDS011;30950;53.086;21.576;2022-08-18T10:16:19;7.95;;;5.35;;
45206;SDS011;30950;53.086;21.576;2022-08-18T10:19:22;6.28;;;4.75;;
45206;SDS011;30950;53.086;21.576;2022-08-18T10:22:06;7.38;;;5.15;;
45206;SDS011;30950;53.086;21.576;2022-08-18T10:24:51;7.30;;;4.75;;
45206;SDS011;30950;53.086;21.576;2022-08-18T10:39:17;6.55;;;4.75;;
45206;SDS011;30950;53.086;21.576;2022-08-18T10:45:08;11.90;;;4.65;;
45206;SDS011;30950;53.086;21.576;2022-08-18T10:51:13;8.05;;;5.10;;
45206;SDS011;30950;53.086;21.576;2022-08-18T10:53:46;10.10;;;5.60;;
45206;SDS011;30950;53.086;21.576;2022-08-18T11:05:09;10.30;;;5.13;;
45206;SDS011;30950;53.086;21.576;2022-08-18T11:07:38;9.27;;;5.20;;
45206;SDS011;30950;53.086;21.576;2022-08-18T11:10:15;10.25;;;5.22;;
45206;SDS011;30950;53.086;21.576;2022-08-18T11:18:37;8.93;;;4.95;;
45206;SDS011;30950;53.086;21.576;2022-08-18T11:29:36;9.57;;;4.22;;
45206;SDS011;30950;53.086;21.576;2022-08-18T11:32:07;11.37;;;4.93;;
45206;SDS011;30950;53.086;21.576;2022-08-18T11:34:41;8.70;;;4.18;;
45206;SDS011;30950;53.086;21.576;2022-08-18T11:39:50;10.93;;;4.50;;
45206;SDS011;30950;53.086;21.576;2022-08-18T11:42:25;8.07;;;4.35;;
45206;SDS011;30950;53.086;21.576;2022-08-18T11:45:01;7.38;;;4.50;;
45206;SDS011;30950;53.086;21.576;2022-08-18T11:50:27;7.10;;;4.97;;
45206;SDS011;30950;53.086;21.576;2022-08-18T11:53:11;8.73;;;4.57;;
45206;SDS011;30950;53.086;21.576;2022-08-18T11:56:03;8.52;;;5.45;;
45206;SDS011;30950;53.086;21.576;2022-08-18T11:58:50;12.25;;;4.38;;
45206;SDS011;30950;53.086;21.576;2022-08-18T12:09:33;7.82;;;4.60;;
45206;SDS011;30950;53.086;21.576;2022-08-18T12:12:29;9.25;;;4.72;;
45206;SDS011;30950;53.086;21.576;2022-08-18T12:17:49;10.68;;;5.15;;
45206;SDS011;30950;53.086;21.576;2022-08-18T12:20:19;9.05;;;5.18;;
45206;SDS011;30950;53.086;21.576;2022-08-18T12:22:48;8.50;;;4.38;;
45206;SDS011;30950;53.086;21.576;2022-08-18T12:25:16;9.77;;;5.28;;
45206;SDS011;30950;53.086;21.576;2022-08-18T12:27:52;8.82;;;5.57;;
45206;SDS011;30950;53.086;21.576;2022-08-18T12:30:20;8.20;;;5.28;;
45206;SDS011;30950;53.086;21.576;2022-08-18T12:32:49;13.07;;;7.47;;
45206;SDS011;30950;53.086;21.576;2022-08-18T12:35:36;8.95;;;4.70;;
45206;SDS011;30950;53.086;21.576;2022-08-18T12:38:24;9.00;;;5.30;;
45206;SDS011;30950;53.086;21.576;2022-08-18T12:40:52;7.60;;;5.30;;
45206;SDS011;30950;53.086;21.576;2022-08-18T12:43:19;8.32;;;4.93;;
45206;SDS011;30950;53.086;21.576;2022-08-18T12:45:47;8.93;;;4.95;;
45206;SDS011;30950;53.086;21.576;2022-08-18T12:48:14;8.63;;;4.97;;
45206;SDS011;30950;53.086;21.576;2022-08-18T12:50:47;8.50;;;5.43;;
45206;SDS011;30950;53.086;21.576;2022-08-18T12:53:24;10.35;;;5.22;;
45206;SDS011;30950;53.086;21.576;2022-08-18T12:56:22;9.35;;;5.43;;
45206;SDS011;30950;53.086;21.576;2022-08-18T12:58:50;12.05;;;5.70;;
45206;SDS011;30950;53.086;21.576;2022-08-18T13:01:18;9.43;;;5.03;;
45206;SDS011;30950;53.086;21.576;2022-08-18T13:03:49;11.63;;;4.82;;
45206;SDS011;30950;53.086;21.576;2022-08-18T13:06:41;9.82;;;5.80;;
45206;SDS011;30950;53.086;21.576;2022-08-18T13:09:28;15.07;;;6.00;;
45206;SDS011;30950;53.086;21.576;2022-08-18T13:12:17;8.65;;;4.82;;
45206;SDS011;30950;53.086;21.576;2022-08-18T13:14:45;8.90;;;4.82;;
45206;SDS011;30950;53.086;21.576;2022-08-18T13:17:13;8.00;;;5.05;;
45206;SDS011;30950;53.086;21.576;2022-08-18T13:20:08;7.82;;;4.53;;
45206;SDS011;30950;53.086;21.576;2022-08-18T13:22:39;10.10;;;5.15;;
45206;SDS011;30950;53.086;21.576;2022-08-18T13:25:09;11.57;;;5.57;;
45206;SDS011;30950;53.086;21.576;2022-08-18T13:27:58;7.00;;;4.85;;
45206;SDS011;30950;53.086;21.576;2022-08-18T13:30:28;8.50;;;5.07;;
45206;SDS011;30950;53.086;21.576;2022-08-18T13:32:58;7.55;;;5.32;;
45206;SDS011;30950;53.086;21.576;2022-08-18T13:35:32;8.70;;;4.43;;
45206;SDS011;30950;53.086;21.576;2022-08-18T13:38:10;7.68;;;5.22;;
45206;SDS011;30950;53.086;21.576;2022-08-18T13:40:45;11.38;;;5.45;;
45206;SDS011;30950;53.086;21.576;2022-08-18T13:43:14;9.60;;;4.97;;
45206;SDS011;30950;53.086;21.576;2022-08-18T13:45:43;7.65;;;4.93;;
45206;SDS011;30950;53.086;21.576;2022-08-18T13:48:21;9.80;;;4.53;;
45206;SDS011;30950;53.086;21.576;2022-08-18T13:50:54;10.93;;;4.60;;
45206;SDS011;30950;53.086;21.576;2022-08-18T13:53:25;11.48;;;5.43;;
45206;SDS011;30950;53.086;21.576;2022-08-18T13:55:54;10.52;;;5.85;;
45206;SDS011;30950;53.086;21.576;2022-08-18T13:58:25;7.47;;;4.70;;
45206;SDS011;30950;53.086;21.576;2022-08-18T14:00:55;10.93;;;4.75;;
45206;SDS011;30950;53.086;21.576;2022-08-18T14:03:45;8.43;;;4.45;;
45206;SDS011;30950;53.086;21.576;2022-08-18T14:06:14;11.60;;;4.50;;
45206;SDS011;30950;53.086;21.576;2022-08-18T14:08:49;7.78;;;5.05;;
45206;SDS011;30950;53.086;21.576;2022-08-18T14:11:17;9.45;;;5.05;;
45206;SDS011;30950;53.086;21.576;2022-08-18T14:13:51;9.95;;;4.63;;
45206;SDS011;30950;53.086;21.576;2022-08-18T14:16:21;12.98;;;4.60;;
45206;SDS011;30950;53.086;21.576;2022-08-18T14:18:53;10.45;;;4.55;;
45206;SDS011;30950;53.086;21.576;2022-08-18T14:21:46;13.07;;;4.97;;
45206;SDS011;30950;53.086;21.576;2022-08-18T14:24:37;9.40;;;4.63;;
45206;SDS011;30950;53.086;21.576;2022-08-18T14:27:27;7.93;;;4.60;;
45206;SDS011;30950;53.086;21.576;2022-08-18T14:30:02;8.95;;;4.43;;
45206;SDS011;30950;53.086;21.576;2022-08-18T14:32:32;9.13;;;4.57;;
45206;SDS011;30950;53.086;21.576;2022-08-18T14:35:02;10.30;;;4.30;;
45206;SDS011;30950;53.086;21.576;2022-08-18T14:37:57;7.05;;;4.80;;
45206;SDS011;30950;53.086;21.576;2022-08-18T14:40:28;9.23;;;4.63;;
45206;SDS011;30950;53.086;21.576;2022-08-18T14:42:58;10.23;;;4.90;;
45206;SDS011;30950;53.086;21.576;2022-08-18T14:45:26;7.43;;;4.65;;
45206;SDS011;30950;53.086;21.576;2022-08-18T14:48:02;9.35;;;4.70;;
45206;SDS011;30950;53.086;21.576;2022-08-18T14:50:33;8.75;;;4.47;;
45206;SDS011;30950;53.086;21.576;2022-08-18T14:53:02;8.20;;;5.20;;
45206;SDS011;30950;53.086;21.576;2022-08-18T14:55:30;5.82;;;4.32;;
45206;SDS011;30950;53.086;21.576;2022-08-18T14:57:59;9.80;;;4.40;;
45206;SDS011;30950;53.086;21.576;2022-08-18T15:00:27;8.70;;;5.07;;
45206;SDS011;30950;53.086;21.576;2022-08-18T15:02:54;7.25;;;4.63;;
45206;SDS011;30950;53.086;21.576;2022-08-18T15:05:26;9.40;;;4.53;;
45206;SDS011;30950;53.086;21.576;2022-08-18T15:08:00;8.43;;;4.70;;
45206;SDS011;30950;53.086;21.576;2022-08-18T15:10:31;8.25;;;4.75;;
45206;SDS011;30950;53.086;21.576;2022-08-18T15:12:59;8.43;;;5.10;;
45206;SDS011;30950;53.086;21.576;2022-08-18T15:15:26;11.75;;;4.70;;
45206;SDS011;30950;53.086;21.576;2022-08-18T15:18:15;9.05;;;4.88;;
45206;SDS011;30950;53.086;21.576;2022-08-18T15:20:49;12.38;;;5.22;;
45206;SDS011;30950;53.086;21.576;2022-08-18T15:23:56;9.07;;;5.95;;
45206;SDS011;30950;53.086;21.576;2022-08-18T15:26:46;8.90;;;5.13;;
45206;SDS011;30950;53.086;21.576;2022-08-18T15:29:17;7.00;;;5.15;;
45206;SDS011;30950;53.086;21.576;2022-08-18T15:31:53;9.30;;;5.57;;
45206;SDS011;30950;53.086;21.576;2022-08-18T15:34:25;9.98;;;5.38;;
45206;SDS011;30950;53.086;21.576;2022-08-18T15:36:53;9.68;;;5.97;;
45206;SDS011;30950;53.086;21.576;2022-08-18T15:39:22;11.15;;;5.53;;
45206;SDS011;30950;53.086;21.576;2022-08-18T15:41:50;8.68;;;5.30;;
45206;SDS011;30950;53.086;21.576;2022-08-18T15:44:19;8.82;;;5.93;;
45206;SDS011;30950;53.086;21.576;2022-08-18T15:46:47;14.75;;;5.43;;
45206;SDS011;30950;53.086;21.576;2022-08-18T15:49:19;9.10;;;6.15;;
45206;SDS011;30950;53.086;21.576;2022-08-18T15:51:48;11.70;;;5.88;;
45206;SDS011;30950;53.086;21.576;2022-08-18T15:54:18;8.80;;;5.10;;
45206;SDS011;30950;53.086;21.576;2022-08-18T15:56:46;6.28;;;4.70;;
45206;SDS011;30950;53.086;21.576;2022-08-18T15:59:25;8.38;;;5.10;;
45206;SDS011;30950;53.086;21.576;2022-08-18T16:02:06;8.82;;;4.85;;
45206;SDS011;30950;53.086;21.576;2022-08-18T16:04:42;12.70;;;5.60;;
45206;SDS011;30950;53.086;21.576;2022-08-18T16:07:10;8.38;;;4.97;;
45206;SDS011;30950;53.086;21.576;2022-08-18T16:09:50;16.30;;;5.97;;
45206;SDS011;30950;53.086;21.576;2022-08-18T16:12:17;12.95;;;7.45;;
45206;SDS011;30950;53.086;21.576;2022-08-18T16:14:45;16.50;;;8.05;;
45206;SDS011;30950;53.086;21.576;2022-08-18T16:17:12;15.20;;;6.85;;
45206;SDS011;30950;53.086;21.576;2022-08-18T16:19:49;14.25;;;6.45;;
45206;SDS011;30950;53.086;21.576;2022-08-18T16:22:16;9.77;;;5.97;;
45206;SDS011;30950;53.086;21.576;2022-08-18T16:24:47;13.88;;;7.13;;
45206;SDS011;30950;53.086;21.576;2022-08-18T16:27:20;13.82;;;8.93;;
45206;SDS011;30950;53.086;21.576;2022-08-18T16:29:47;12.35;;;6.57;;
45206;SDS011;30950;53.086;21.576;2022-08-18T16:32:15;9.38;;;6.50;;
45206;SDS011;30950;53.086;21.576;2022-08-18T16:34:42;15.07;;;7.57;;
45206;SDS011;30950;53.086;21.576;2022-08-18T16:37:09;14.95;;;10.55;;
45206;SDS011;30950;53.086;21.576;2022-08-18T16:39:36;18.55;;;9.45;;
45206;SDS011;30950;53.086;21.576;2022-08-18T16:42:04;10.05;;;6.22;;
45206;SDS011;30950;53.086;21.576;2022-08-18T16:44:33;13.57;;;9.20;;
45206;SDS011;30950;53.086;21.576;2022-08-18T16:47:02;8.52;;;6.15;;
45206;SDS011;30950;53.086;21.576;2022-08-18T16:49:30;13.18;;;6.25;;
45206;SDS011;30950;53.086;21.576;2022-08-18T16:51:58;10.68;;;6.07;;
45206;SDS011;30950;53.086;21.576;2022-08-18T16:54:28;9.18;;;6.32;;
45206;SDS011;30950;53.086;21.576;2022-08-18T16:56:57;8.15;;;6.07;;
45206;SDS011;30950;53.086;21.576;2022-08-18T16:59:24;10.90;;;5.75;;
45206;SDS011;30950;53.086;21.576;2022-08-18T17:02:10;11.13;;;6.43;;
45206;SDS011;30950;53.086;21.576;2022-08-18T17:04:56;12.32;;;6.07;;
45206;SDS011;30950;53.086;21.576;2022-08-18T17:07:28;15.27;;;6.85;;
45206;SDS011;30950;53.086;21.576;2022-08-18T17:09:57;14.02;;;9.68;;
45206;SDS011;30950;53.086;21.576;2022-08-18T17:12:24;14.80;;;8.82;;
45206;SDS011;30950;53.086;21.576;2022-08-18T17:14:53;19.08;;;9.95;;
45206;SDS011;30950;53.086;21.576;2022-08-18T17:17:21;14.30;;;8.75;;
45206;SDS011;30950;53.086;21.576;2022-08-18T17:19:49;18.40;;;10.80;;
45206;SDS011;30950;53.086;21.576;2022-08-18T17:22:17;11.07;;;7.03;;
45206;SDS011;30950;53.086;21.576;2022-08-18T17:24:44;16.52;;;7.72;;
45206;SDS011;30950;53.086;21.576;2022-08-18T17:27:20;11.30;;;7.80;;
45206;SDS011;30950;53.086;21.576;2022-08-18T17:30:18;16.35;;;8.95;;
45206;SDS011;30950;53.086;21.576;2022-08-18T17:32:50;11.45;;;6.40;;
45206;SDS011;30950;53.086;21.576;2022-08-18T17:35:26;12.85;;;7.65;;
45206;SDS011;30950;53.086;21.576;2022-08-18T17:38:11;10.55;;;7.07;;
45206;SDS011;30950;53.086;21.576;2022-08-18T17:40:56;10.88;;;7.43;;
45206;SDS011;30950;53.086;21.576;2022-08-18T17:43:24;11.75;;;7.13;;
45206;SDS011;30950;53.086;21.576;2022-08-18T17:45:56;16.63;;;8.80;;
45206;SDS011;30950;53.086;21.576;2022-08-18T17:48:29;10.93;;;7.97;;
45206;SDS011;30950;53.086;21.576;2022-08-18T17:51:21;15.27;;;7.45;;